Time;durP1;ratioP1;P1;durP2;ratioP2;P2;SDS_P1;SDS_P2;PMS_P1;PMS_P2;Temp;Humidity;BMP_temperature;BMP_pressure;BME280_temperature;BME280_humidity;BME280_pressure;Samples;Min_cycle;Max_cycle;Signal;HPM_P1;HPM_P2
2023/07/13 00:01:25;;;;;;;2.90;1.77;;;21.50;56.80;;;;;;5052053;28;20046;-82
2023/07/13 00:04:01;;;;;;;2.53;1.30;;;21.50;57.20;;;;;;5029845;28;20036;-82
2023/07/13 00:06:47;;;;;;;1.65;1.55;;;21.40;56.90;;;;;;5042548;28;20032;-82
2023/07/13 00:09:15;;;;;;;3.00;1.38;;;21.40;57.00;;;;;;5040149;28;20036;-82
2023/07/13 00:11:51;;;;;;;1.40;1.10;;;21.30;56.90;;;;;;5028526;28;20033;-84
2023/07/13 00:14:26;;;;;;;2.20;1.23;;;21.30;57.10;;;;;;5052090;28;20059;-82
2023/07/13 00:16:52;;;;;;;2.05;1.38;;;21.30;57.20;;;;;;5041343;28;20044;-83
2023/07/13 00:19:18;;;;;;;1.42;1.10;;;21.30;57.30;;;;;;5049584;28;20124;-82
2023/07/13 00:21:45;;;;;;;2.35;1.52;;;21.20;57.30;;;;;;5043469;28;20032;-82
2023/07/13 00:24:14;;;;;;;3.00;1.60;;;21.20;57.40;;;;;;5049085;28;20045;-81
2023/07/13 00:26:45;;;;;;;2.38;1.33;;;21.20;57.50;;;;;;5034661;28;20259;-82
2023/07/13 00:29:12;;;;;;;3.30;1.63;;;21.20;57.60;;;;;;5054017;28;20043;-82
2023/07/13 00:31:41;;;;;;;3.10;1.23;;;21.10;57.50;;;;;;5038805;28;20166;-82
2023/07/13 00:34:08;;;;;;;2.13;1.50;;;21.10;57.60;;;;;;5049268;28;20060;-82
2023/07/13 00:36:53;;;;;;;1.90;1.30;;;21.10;57.70;;;;;;5039872;28;20123;-82
2023/07/13 00:39:29;;;;;;;3.10;1.55;;;21.10;57.70;;;;;;5020495;28;20447;-82
2023/07/13 00:41:56;;;;;;;3.53;1.60;;;21.00;57.60;;;;;;5058572;28;20037;-82
2023/07/13 00:44:27;;;;;;;2.92;1.50;;;21.00;57.70;;;;;;5044521;28;20094;-81
2023/07/13 00:47:03;;;;;;;2.88;1.35;;;21.00;57.90;;;;;;5042637;28;20037;-79
2023/07/13 00:49:39;;;;;;;2.00;1.45;;;21.00;57.90;;;;;;5028762;28;20559;-80
2023/07/13 00:52:15;;;;;;;1.52;1.42;;;20.90;57.90;;;;;;5050027;28;20032;-80
2023/07/13 00:54:46;;;;;;;2.10;1.25;;;20.90;57.90;;;;;;5022352;28;20049;-80
2023/07/13 00:57:33;;;;;;;1.58;1.40;;;20.90;58.10;;;;;;5026797;28;20376;-81
2023/07/13 01:00:08;;;;;;;3.40;1.35;;;20.90;58.20;;;;;;5023458;28;20033;-81
2023/07/13 01:02:38;;;;;;;2.30;1.27;;;20.80;58.00;;;;;;5041028;28;20400;-83
2023/07/13 01:05:26;;;;;;;1.95;1.23;;;20.80;58.10;;;;;;5030532;28;20507;-82
2023/07/13 01:07:55;;;;;;;2.78;1.60;;;20.80;58.20;;;;;;5035472;28;20048;-81
2023/07/13 01:10:40;;;;;;;2.87;1.40;;;20.70;58.10;;;;;;5045837;28;20037;-81
2023/07/13 01:13:08;;;;;;;2.65;1.65;;;20.70;58.20;;;;;;5050369;28;20056;-81
2023/07/13 01:15:46;;;;;;;4.25;2.08;;;20.70;58.30;;;;;;5035351;28;20047;-81
2023/07/13 01:18:20;;;;;;;3.70;1.95;;;20.60;58.20;;;;;;5035173;28;20404;-81
2023/07/13 01:20:56;;;;;;;2.58;1.40;;;20.60;58.30;;;;;;5053858;28;20040;-81
2023/07/13 01:23:24;;;;;;;4.72;1.60;;;20.60;58.40;;;;;;5047891;28;20036;-81
2023/07/13 01:25:51;;;;;;;1.60;1.10;;;20.60;58.50;;;;;;5026677;28;20241;-82
2023/07/13 01:28:28;;;;;;;4.68;1.33;;;20.60;58.60;;;;;;5046813;28;20039;-80
2023/07/13 01:30:59;;;;;;;3.47;1.60;;;20.50;58.50;;;;;;5038597;28;20082;-81
2023/07/13 01:33:39;;;;;;;4.45;2.03;;;20.50;58.60;;;;;;5049390;28;20068;-81
2023/07/13 01:36:10;;;;;;;2.42;1.63;;;20.50;58.70;;;;;;5029325;28;20049;-81
2023/07/13 01:38:48;;;;;;;2.40;1.33;;;20.50;58.80;;;;;;5035988;28;20040;-80
2023/07/13 01:41:20;;;;;;;5.37;1.63;;;20.40;58.60;;;;;;5040282;28;20139;-79
2023/07/13 01:43:46;;;;;;;4.40;2.08;;;20.40;58.60;;;;;;5031590;28;20527;-80
2023/07/13 01:46:19;;;;;;;1.98;1.30;;;20.40;58.70;;;;;;5037792;28;20472;-80
2023/07/13 01:48:51;;;;;;;1.92;1.35;;;20.40;58.80;;;;;;5020387;28;20664;-80
2023/07/13 01:51:19;;;;;;;1.95;1.27;;;20.40;58.90;;;;;;5031779;28;20108;-80
2023/07/13 01:53:56;;;;;;;3.10;1.27;;;20.40;58.90;;;;;;5026309;28;20123;-80
2023/07/13 01:56:36;;;;;;;2.08;1.17;;;20.30;58.90;;;;;;5022696;28;20047;-81
2023/07/13 01:59:09;;;;;;;2.38;1.50;;;20.30;58.90;;;;;;5018067;28;20028;-81
2023/07/13 02:01:57;;;;;;;3.85;1.60;;;20.30;58.90;;;;;;5039300;28;20028;-81
2023/07/13 02:04:27;;;;;;;3.75;1.65;;;20.30;59.00;;;;;;5040323;28;20116;-80
2023/07/13 02:07:05;;;;;;;2.38;1.48;;;20.30;59.20;;;;;;5025284;28;20036;-81
2023/07/13 02:09:37;;;;;;;2.15;1.42;;;20.20;59.00;;;;;;5045710;28;20098;-81
2023/07/13 02:12:09;;;;;;;2.20;1.67;;;20.20;59.10;;;;;;5046135;28;20614;-81
2023/07/13 02:14:49;;;;;;;4.10;1.88;;;20.20;59.20;;;;;;5029317;28;20058;-81
2023/07/13 02:17:29;;;;;;;3.35;1.80;;;20.10;59.10;;;;;;5036064;28;20489;-81
2023/07/13 02:20:07;;;;;;;2.70;1.92;;;20.10;59.10;;;;;;5029159;28;20068;-80
2023/07/13 02:22:33;;;;;;;4.90;1.10;;;20.10;59.20;;;;;;5028975;28;20060;-81
2023/07/13 02:25:04;;;;;;;2.22;1.20;;;20.10;59.30;;;;;;5040545;28;20047;-83
2023/07/13 02:27:35;;;;;;;2.15;1.48;;;20.00;59.20;;;;;;5051469;28;20345;-80
2023/07/13 02:30:05;;;;;;;2.63;1.50;;;20.00;59.30;;;;;;5012213;28;20041;-81
2023/07/13 02:32:37;;;;;;;2.30;1.23;;;20.00;59.50;;;;;;5052986;28;20097;-81
2023/07/13 02:35:05;;;;;;;2.20;1.10;;;20.00;59.90;;;;;;5027286;28;20576;-81
2023/07/13 02:37:46;;;;;;;2.33;1.10;;;19.90;59.50;;;;;;5049980;28;20056;-81
2023/07/13 02:40:25;;;;;;;1.50;0.98;;;19.90;59.60;;;;;;5029064;28;20044;-81
2023/07/13 02:42:51;;;;;;;2.78;1.60;;;19.90;59.70;;;;;;5056248;28;20579;-80
2023/07/13 02:45:20;;;;;;;2.35;1.20;;;19.90;59.90;;;;;;5044860;28;20036;-80
2023/07/13 02:48:08;;;;;;;2.65;1.27;;;19.80;59.80;;;;;;5030732;28;20029;-81
2023/07/13 02:50:56;;;;;;;2.10;1.20;;;19.80;59.80;;;;;;5009886;28;20442;-81
2023/07/13 02:53:41;;;;;;;2.97;1.30;;;19.80;59.80;;;;;;5044121;28;20028;-80
2023/07/13 02:56:31;;;;;;;2.92;1.40;;;19.70;59.70;;;;;;5019331;28;20060;-80
2023/07/13 02:59:02;;;;;;;2.13;1.23;;;19.70;59.80;;;;;;5049975;28;20029;-81
2023/07/13 03:01:28;;;;;;;2.05;1.13;;;19.70;59.90;;;;;;5028845;28;20043;-81
2023/07/13 03:03:55;;;;;;;1.00;0.80;;;19.70;60.00;;;;;;5039872;28;20098;-81
2023/07/13 03:06:30;;;;;;;2.83;1.30;;;19.70;60.10;;;;;;5026370;28;20174;-81
2023/07/13 03:09:03;;;;;;;1.63;1.27;;;19.70;60.20;;;;;;5030521;28;20033;-81
2023/07/13 03:11:31;;;;;;;2.70;1.10;;;19.60;60.00;;;;;;5039540;28;20071;-81
2023/07/13 03:14:20;;;;;;;2.00;0.95;;;19.60;60.20;;;;;;5029895;28;20032;-81
2023/07/13 03:16:55;;;;;;;2.55;1.00;;;19.60;60.20;;;;;;5026042;28;20315;-80
2023/07/13 03:19:28;;;;;;;2.95;1.38;;;19.50;60.10;;;;;;5025695;28;20575;-79
2023/07/13 03:21:55;;;;;;;1.63;1.15;;;19.50;60.20;;;;;;5032840;28;20519;-80
2023/07/13 03:24:25;;;;;;;2.28;1.20;;;19.50;60.30;;;;;;5036973;28;20264;-80
2023/07/13 03:26:55;;;;;;;2.30;1.15;;;19.40;60.80;;;;;;5051268;28;20277;-79
2023/07/13 03:29:23;;;;;;;2.60;1.60;;;19.40;60.30;;;;;;5021702;28;20131;-80
2023/07/13 03:32:09;;;;;;;3.20;1.20;;;19.40;60.40;;;;;;5032127;28;20531;-80
2023/07/13 03:34:50;;;;;;;2.85;1.80;;;19.30;60.30;;;;;;5035383;28;20040;-81
2023/07/13 03:37:22;;;;;;;;;;;19.30;60.30;;;;;;5034082;28;20021;-80
2023/07/13 03:39:49;;;;;;;1.88;1.08;;;19.30;60.30;;;;;;5026613;28;19909;-80
2023/07/13 03:42:17;;;;;;;2.33;1.20;;;19.30;60.20;;;;;;5009862;28;20044;-80
2023/07/13 03:44:52;;;;;;;1.83;1.23;;;19.20;60.10;;;;;;5028967;28;20124;-81
2023/07/13 03:47:22;;;;;;;2.05;1.00;;;19.20;60.30;;;;;;5040261;28;20135;-81
2023/07/13 03:49:51;;;;;;;1.73;1.00;;;19.20;60.40;;;;;;5030492;28;20133;-81
2023/07/13 03:52:27;;;;;;;1.50;1.13;;;19.20;60.50;;;;;;5032999;28;20463;-81
2023/07/13 03:55:03;;;;;;;2.80;1.90;;;19.20;60.50;;;;;;5039582;28;20045;-80
2023/07/13 03:57:32;;;;;;;1.50;0.90;;;19.10;60.40;;;;;;5020053;28;20035;-79
2023/07/13 04:00:17;;;;;;;2.60;1.10;;;19.10;60.50;;;;;;5021843;28;20106;-78
2023/07/13 04:02:49;;;;;;;1.98;1.10;;;19.20;60.70;;;;;;5033500;28;20116;-78
2023/07/13 04:05:34;;;;;;;1.20;0.90;;;19.10;60.60;;;;;;5032417;28;20114;-80
2023/07/13 04:08:00;;;;;;;2.67;1.00;;;19.10;60.70;;;;;;5020097;28;20026;-80
2023/07/13 04:10:38;;;;;;;2.42;1.30;;;19.10;60.70;;;;;;5024305;28;20038;-78
2023/07/13 04:13:05;;;;;;;3.10;1.50;;;19.10;60.70;;;;;;5031624;28;20431;-78
2023/07/13 04:15:32;;;;;;;2.10;0.95;;;19.20;60.90;;;;;;5019415;28;20452;-78
2023/07/13 04:18:03;;;;;;;1.30;1.05;;;19.20;60.90;;;;;;5025137;28;20117;-78
2023/07/13 04:20:33;;;;;;;1.60;1.00;;;19.10;60.80;;;;;;5024938;28;20031;-81
2023/07/13 04:22:59;;;;;;;1.27;1.17;;;19.20;61.00;;;;;;5032637;28;20029;-80
2023/07/13 04:25:25;;;;;;;2.33;0.88;;;19.10;60.90;;;;;;5039339;28;20052;-82
2023/07/13 04:27:53;;;;;;;1.35;1.02;;;19.20;61.10;;;;;;5034313;28;20021;-81
2023/07/13 04:30:26;;;;;;;2.30;1.40;;;19.20;61.10;;;;;;5038076;28;20029;-80
2023/07/13 04:32:55;;;;;;;1.85;1.55;;;19.10;60.90;;;;;;5037296;28;20053;-80
2023/07/13 04:35:21;;;;;;;3.20;1.35;;;19.20;61.20;;;;;;5028487;28;20037;-80
2023/07/13 04:38:06;;;;;;;2.00;1.40;;;19.20;61.20;;;;;;5031812;28;20048;-80
2023/07/13 04:40:34;;;;;;;2.25;1.25;;;19.20;61.20;;;;;;5043405;28;20187;-80
2023/07/13 04:43:03;;;;;;;2.40;1.30;;;19.20;61.20;;;;;;5042603;28;20043;-80
2023/07/13 04:45:31;;;;;;;1.10;1.00;;;19.20;61.30;;;;;;5028209;28;20535;-79
2023/07/13 04:48:13;;;;;;;1.17;1.05;;;19.20;61.30;;;;;;5033513;28;20506;-80
2023/07/13 04:50:39;;;;;;;3.13;1.45;;;19.20;61.20;;;;;;5025916;28;20393;-80
2023/07/13 04:53:07;;;;;;;2.30;1.30;;;19.20;61.30;;;;;;5006173;28;20061;-81
2023/07/13 04:55:34;;;;;;;2.75;0.95;;;19.20;61.30;;;;;;5024363;28;20037;-82
2023/07/13 04:58:02;;;;;;;1.90;1.20;;;19.20;61.30;;;;;;5024038;28;20555;-80
2023/07/13 05:00:29;;;;;;;2.65;1.15;;;19.20;61.30;;;;;;5023162;28;20148;-80
2023/07/13 05:02:57;;;;;;;2.35;1.13;;;19.20;61.30;;;;;;5024125;28;20044;-80
2023/07/13 05:05:24;;;;;;;1.48;1.00;;;19.20;61.30;;;;;;5041593;28;20135;-80
2023/07/13 05:07:50;;;;;;;3.25;1.33;;;19.30;61.50;;;;;;5036671;28;20033;-80
2023/07/13 05:10:16;;;;;;;1.60;1.02;;;19.30;61.50;;;;;;5024061;28;20530;-80
2023/07/13 05:12:43;;;;;;;2.10;1.10;;;19.30;61.50;;;;;;5030416;28;20033;-79
2023/07/13 05:15:10;;;;;;;2.17;0.90;;;19.30;61.50;;;;;;5041143;28;20132;-78
2023/07/13 05:17:56;;;;;;;1.77;1.17;;;19.40;61.60;;;;;;4954784;28;20070;-81
2023/07/13 05:20:22;;;;;;;1.85;0.90;;;19.40;61.50;;;;;;5012105;28;20037;-81
2023/07/13 05:22:48;;;;;;;1.80;1.00;;;19.40;61.50;;;;;;5034026;28;20107;-80
2023/07/13 05:25:14;;;;;;;1.75;0.90;;;19.40;61.50;;;;;;5028476;28;20040;-81
2023/07/13 05:27:40;;;;;;;2.13;1.20;;;19.50;61.70;;;;;;5030065;28;20033;-81
2023/07/13 05:30:10;;;;;;;3.78;1.65;;;19.50;62.20;;;;;;5025062;28;20662;-83
2023/07/13 05:32:36;;;;;;;4.43;1.20;;;19.50;62.60;;;;;;5032323;28;20063;-78
2023/07/13 05:35:06;;;;;;;3.95;1.83;;;19.60;63.20;;;;;;5050814;28;20094;-78
2023/07/13 05:37:32;;;;;;;2.38;1.13;;;19.60;63.50;;;;;;5049548;28;20151;-78
2023/07/13 05:39:58;;;;;;;2.03;1.55;;;19.60;63.70;;;;;;5050064;28;20440;-79
2023/07/13 05:42:25;;;;;;;1.08;1.00;;;19.60;63.90;;;;;;5002058;28;20029;-78
2023/07/13 05:44:51;;;;;;;1.30;1.00;;;19.70;64.20;;;;;;5053894;28;20033;-77
2023/07/13 05:47:17;;;;;;;2.67;1.55;;;19.80;64.40;;;;;;5042099;28;20126;-78
2023/07/13 05:49:43;;;;;;;4.03;2.13;;;19.80;64.40;;;;;;5029350;28;20112;-77
2023/07/13 05:52:09;;;;;;;2.15;1.13;;;19.90;64.60;;;;;;5051858;28;20143;-78
2023/07/13 05:54:35;;;;;;;3.38;1.45;;;20.00;64.70;;;;;;5045945;28;20098;-78
2023/07/13 05:57:01;;;;;;;1.58;1.15;;;20.10;64.80;;;;;;5029202;28;20024;-78
2023/07/13 05:59:27;;;;;;;1.92;1.10;;;20.20;64.80;;;;;;5029238;28;20239;-81
2023/07/13 06:01:53;;;;;;;4.82;1.98;;;20.30;64.80;;;;;;5013350;28;20028;-81
2023/07/13 06:04:20;;;;;;;2.13;1.25;;;20.40;64.80;;;;;;5035495;28;20036;-81
2023/07/13 06:06:45;;;;;;;2.10;1.40;;;20.50;64.80;;;;;;5035568;28;20121;-80
2023/07/13 06:09:12;;;;;;;3.28;1.80;;;20.50;64.70;;;;;;5045847;28;20071;-82
2023/07/13 06:11:38;;;;;;;3.88;2.00;;;20.60;64.90;;;;;;5046935;28;20143;-81
2023/07/13 06:14:04;;;;;;;2.58;1.58;;;20.70;64.90;;;;;;5045105;28;20090;-80
2023/07/13 06:16:30;;;;;;;2.70;1.60;;;20.80;64.90;;;;;;5037720;28;20044;-77
2023/07/13 06:18:56;;;;;;;3.05;1.80;;;20.90;64.90;;;;;;5043012;28;20032;-79
2023/07/13 06:21:23;;;;;;;3.15;1.30;;;20.90;64.80;;;;;;5035022;28;20127;-78
2023/07/13 06:23:50;;;;;;;3.72;1.83;;;21.00;64.80;;;;;;5045965;28;20048;-79
2023/07/13 06:26:25;;;;;;;3.25;2.00;;;21.10;64.90;;;;;;5026659;28;20037;-78
2023/07/13 06:28:52;;;;;;;3.27;1.90;;;21.20;64.80;;;;;;5039935;28;20055;-79
2023/07/13 06:31:18;;;;;;;4.10;1.98;;;21.30;64.70;;;;;;5018499;28;20514;-79
2023/07/13 06:33:45;;;;;;;4.28;1.50;;;21.30;64.60;;;;;;5040647;28;20055;-80
2023/07/13 06:36:11;;;;;;;4.25;1.45;;;21.40;64.60;;;;;;5040523;28;20037;-79
2023/07/13 06:38:38;;;;;;;9.02;2.65;;;21.50;64.60;;;;;;5030478;28;20037;-78
2023/07/13 06:41:05;;;;;;;2.03;1.27;;;21.50;64.60;;;;;;5027377;28;20075;-79
2023/07/13 06:43:32;;;;;;;1.83;1.20;;;21.50;64.60;;;;;;5028596;28;20205;-79
2023/07/13 06:45:58;;;;;;;2.15;0.85;;;21.40;64.50;;;;;;5029535;28;20101;-80
2023/07/13 06:48:24;;;;;;;1.75;1.65;;;21.40;64.50;;;;;;5046758;28;20036;-77
2023/07/13 06:50:52;;;;;;;2.33;1.40;;;21.40;64.60;;;;;;5056749;28;20036;-80
2023/07/13 06:53:22;;;;;;;3.25;1.77;;;21.40;64.60;;;;;;5040215;28;20199;-79
2023/07/13 06:55:48;;;;;;;2.58;1.30;;;21.40;64.60;;;;;;5043314;28;20047;-80
2023/07/13 06:58:16;;;;;;;2.53;1.25;;;21.30;64.50;;;;;;5032020;28;20040;-80
2023/07/13 07:00:42;;;;;;;4.20;1.48;;;21.40;64.70;;;;;;5046468;28;20044;-79
2023/07/13 07:03:08;;;;;;;2.80;1.40;;;21.40;64.70;;;;;;5039014;28;20384;-79
2023/07/13 07:05:37;;;;;;;2.35;1.08;;;21.40;64.70;;;;;;5033442;28;20057;-80
2023/07/13 07:08:04;;;;;;;2.70;1.25;;;21.30;64.50;;;;;;5033649;28;20029;-80
2023/07/13 07:10:31;;;;;;;1.67;1.30;;;21.30;64.60;;;;;;5047641;28;20043;-77
2023/07/13 07:12:57;;;;;;;2.67;1.40;;;21.30;64.60;;;;;;5019199;28;20032;-80
2023/07/13 07:15:23;;;;;;;3.88;0.95;;;21.30;64.70;;;;;;5049805;28;20037;-79
2023/07/13 07:17:49;;;;;;;2.33;1.20;;;21.30;64.70;;;;;;5050212;28;20032;-77
2023/07/13 07:20:15;;;;;;;2.95;1.08;;;21.20;64.60;;;;;;5046106;28;20535;-77
2023/07/13 07:22:41;;;;;;;2.35;1.10;;;21.20;64.60;;;;;;5046835;28;20444;-77
2023/07/13 07:25:07;;;;;;;1.92;1.08;;;21.30;64.70;;;;;;5020807;28;20072;-77
2023/07/13 07:27:34;;;;;;;2.33;0.93;;;21.30;64.80;;;;;;5038416;28;20033;-76
2023/07/13 07:30:00;;;;;;;2.30;1.08;;;21.30;64.70;;;;;;5044848;28;20065;-76
2023/07/13 07:32:30;;;;;;;3.22;1.02;;;21.30;64.60;;;;;;5041213;28;20041;-77
2023/07/13 07:34:57;;;;;;;1.42;0.95;;;21.30;64.60;;;;;;5042029;28;20112;-77
2023/07/13 07:37:24;;;;;;;1.60;1.17;;;21.40;64.70;;;;;;5033770;28;20367;-77
2023/07/13 07:39:50;;;;;;;2.40;1.35;;;21.40;64.70;;;;;;5043593;28;20045;-78
2023/07/13 07:42:16;;;;;;;1.63;0.88;;;21.30;64.50;;;;;;5028233;28;20460;-77
2023/07/13 07:44:42;;;;;;;1.60;1.10;;;21.40;64.80;;;;;;5034498;28;20045;-78
2023/07/13 07:47:11;;;;;;;1.67;1.20;;;21.40;64.90;;;;;;5037787;28;20155;-77
2023/07/13 07:49:38;;;;;;;1.23;0.70;;;21.40;64.70;;;;;;5049776;28;20024;-77
2023/07/13 07:52:04;;;;;;;1.88;1.00;;;21.40;64.70;;;;;;5040330;28;20029;-77
2023/07/13 07:54:30;;;;;;;1.30;1.20;;;21.40;64.70;;;;;;5048202;28;20040;-77
2023/07/13 07:56:56;;;;;;;4.63;1.08;;;21.40;64.70;;;;;;5016950;28;20032;-78
2023/07/13 07:59:22;;;;;;;2.92;1.50;;;21.40;64.70;;;;;;5051037;28;20144;-78
2023/07/13 08:01:50;;;;;;;1.75;1.08;;;21.40;64.70;;;;;;5049968;28;20047;-78
2023/07/13 08:04:16;;;;;;;2.13;1.13;;;21.40;64.80;;;;;;5039749;28;20100;-78
2023/07/13 08:06:42;;;;;;;1.60;1.02;;;21.40;64.90;;;;;;5042435;28;20619;-78
2023/07/13 08:09:09;;;;;;;1.90;1.10;;;21.40;64.80;;;;;;5040456;28;20037;-79
2023/07/13 08:11:35;;;;;;;4.72;1.48;;;21.40;64.70;;;;;;5036378;28;20033;-78
2023/07/13 08:14:01;;;;;;;1.98;1.00;;;21.50;64.80;;;;;;5038543;28;20040;-78
2023/07/13 08:16:27;;;;;;;3.80;1.63;;;21.50;64.60;;;;;;5039793;28;20151;-78
2023/07/13 08:18:53;;;;;;;2.13;0.80;;;21.60;64.60;;;;;;5048498;28;20587;-81
2023/07/13 08:21:20;;;;;;;2.45;1.15;;;21.60;64.40;;;;;;5042576;28;20374;-78
2023/07/13 08:23:46;;;;;;;1.70;1.00;;;21.70;64.40;;;;;;5055786;28;20032;-81
2023/07/13 08:26:12;;;;;;;1.73;1.05;;;21.80;64.40;;;;;;5052935;28;20024;-78
2023/07/13 08:28:38;;;;;;;1.60;1.00;;;21.90;64.30;;;;;;5049329;28;20079;-78
2023/07/13 08:31:07;;;;;;;2.88;1.35;;;21.90;64.10;;;;;;5052155;28;20494;-78
2023/07/13 08:33:35;;;;;;;2.45;1.00;;;22.10;64.20;;;;;;5043477;28;20176;-78
2023/07/13 08:36:02;;;;;;;1.65;0.82;;;22.20;64.10;;;;;;5030063;28;20041;-78
2023/07/13 08:38:28;;;;;;;2.35;1.13;;;22.30;63.90;;;;;;5043782;28;20400;-79
2023/07/13 08:40:58;;;;;;;1.10;0.90;;;22.50;64.00;;;;;;5041520;28;20044;-79
2023/07/13 08:43:30;;;;;;;1.63;1.15;;;22.60;63.80;;;;;;5029860;28;20041;-79
2023/07/13 08:46:38;;;;;;;1.65;0.85;;;22.80;63.90;;;;;;5042368;28;20043;-78
2023/07/13 08:49:17;;;;;;;3.30;1.13;;;22.90;63.80;;;;;;5025674;28;20036;-79
2023/07/13 08:51:45;;;;;;;;;;;23.00;63.60;;;;;;5037773;28;20048;-78
2023/07/13 08:54:30;;;;;;;0.82;0.82;;;23.20;63.60;;;;;;5047485;28;19912;-81
2023/07/13 08:57:03;;;;;;;0.95;0.68;;;23.30;63.50;;;;;;5043811;28;20033;-83
2023/07/13 08:59:35;;;;;;;1.27;0.80;;;23.40;63.40;;;;;;5045081;28;20484;-81
2023/07/13 09:02:22;;;;;;;1.65;0.80;;;23.50;63.40;;;;;;5036928;28;20151;-81
2023/07/13 09:05:13;;;;;;;1.67;1.17;;;23.60;63.30;;;;;;5032812;28;20034;-81
2023/07/13 09:08:08;;;;;;;2.15;0.90;;;23.80;63.30;;;;;;5037048;28;20033;-81
2023/07/13 09:10:48;;;;;;;2.78;1.35;;;23.90;63.20;;;;;;5024389;28;20044;-82
2023/07/13 09:13:55;;;;;;;1.88;0.68;;;24.10;63.20;;;;;;5047007;28;20051;-84
2023/07/13 09:16:25;;;;;;;3.45;1.00;;;24.10;63.00;;;;;;5017413;28;20092;-79
2023/07/13 09:18:56;;;;;;;2.35;0.90;;;24.10;63.10;;;;;;5053611;28;20032;-79
2023/07/13 09:21:24;;;;;;;3.33;0.98;;;24.00;62.90;;;;;;5053392;28;20040;-81
2023/07/13 09:23:56;;;;;;;2.58;1.27;;;24.10;63.00;;;;;;5034048;28;20495;-82
2023/07/13 09:26:24;;;;;;;2.25;1.10;;;24.10;62.90;;;;;;5029220;28;20036;-81
2023/07/13 09:29:19;;;;;;;1.27;0.50;;;24.20;62.80;;;;;;5039166;28;20052;-83
2023/07/13 09:31:53;;;;;;;2.50;1.00;;;24.30;62.80;;;;;;5045235;28;20041;-84
2023/07/13 09:34:19;;;;;;;1.25;0.60;;;24.40;62.70;;;;;;5042914;28;20036;-85
2023/07/13 09:36:48;;;;;;;1.10;0.90;;;24.50;62.70;;;;;;5035839;28;20087;-81
2023/07/13 09:39:35;;;;;;;3.92;0.95;;;24.50;62.60;;;;;;5039307;28;20032;-80
2023/07/13 09:42:07;;;;;;;1.80;0.90;;;24.60;62.60;;;;;;5037135;28;20029;-81
2023/07/13 09:44:38;;;;;;;2.70;1.00;;;24.60;62.40;;;;;;5036930;28;20040;-81
2023/07/13 09:47:27;;;;;;;0.97;0.80;;;24.70;62.50;;;;;;5035218;28;20112;-83
2023/07/13 09:50:18;;;;;;;1.13;0.70;;;24.80;62.50;;;;;;5043513;28;20048;-79
2023/07/13 09:52:49;;;;;;;2.58;1.40;;;24.90;62.50;;;;;;5043859;28;20106;-80
2023/07/13 09:55:38;;;;;;;1.50;1.20;;;25.00;62.40;;;;;;5042949;28;20068;-81
2023/07/13 09:58:17;;;;;;;2.28;0.73;;;25.10;62.20;;;;;;5043590;28;20041;-81
2023/07/13 10:01:02;;;;;;;0.75;0.70;;;25.20;62.00;;;;;;5050832;28;20326;-81
2023/07/13 10:03:37;;;;;;;0.88;0.73;;;25.40;61.70;;;;;;5045327;28;20028;-81
2023/07/13 10:06:19;;;;;;;0.75;0.60;;;25.60;61.60;;;;;;5035239;28;20039;-81
2023/07/13 10:08:49;;;;;;;0.68;0.60;;;25.90;61.20;;;;;;5047429;28;20443;-81
2023/07/13 10:11:23;;;;;;;1.02;0.80;;;26.20;60.80;;;;;;5047240;28;20607;-82
2023/07/13 10:14:01;;;;;;;1.60;0.75;;;26.60;60.30;;;;;;5019582;28;20037;-81
2023/07/13 10:16:32;;;;;;;1.10;0.70;;;27.00;59.60;;;;;;5044863;28;20420;-81
2023/07/13 10:19:10;;;;;;;2.27;1.20;;;27.30;59.10;;;;;;5034886;28;20028;-83
2023/07/13 10:21:50;;;;;;;0.85;0.60;;;27.50;58.50;;;;;;5039229;28;20499;-80
2023/07/13 10:24:37;;;;;;;0.52;0.50;;;27.80;58.10;;;;;;5042285;28;20041;-80
2023/07/13 10:27:17;;;;;;;1.45;0.70;;;28.00;57.80;;;;;;5021805;28;20689;-80
2023/07/13 10:29:52;;;;;;;0.88;0.57;;;28.10;57.50;;;;;;5034735;28;20041;-80
2023/07/13 10:32:21;;;;;;;1.10;0.60;;;28.10;57.20;;;;;;5035031;28;20299;-80
2023/07/13 10:34:50;;;;;;;0.65;0.60;;;28.20;57.30;;;;;;5016909;28;20109;-80
2023/07/13 10:37:20;;;;;;;1.17;0.70;;;28.20;57.20;;;;;;5036107;28;20041;-80
2023/07/13 10:39:47;;;;;;;1.38;0.70;;;28.20;57.10;;;;;;5043621;28;20625;-80
2023/07/13 10:42:25;;;;;;;1.95;0.50;;;28.40;56.90;;;;;;5050874;28;20043;-78
2023/07/13 10:44:54;;;;;;;1.60;0.70;;;28.50;56.50;;;;;;5046123;28;20252;-81
2023/07/13 10:47:21;;;;;;;1.92;0.60;;;28.70;56.40;;;;;;5040429;28;20068;-82
2023/07/13 10:49:54;;;;;;;3.90;0.90;;;28.80;56.00;;;;;;5029669;28;20053;-82
2023/07/13 10:52:46;;;;;;;2.55;1.00;;;29.00;55.90;;;;;;5048359;28;20083;-82
2023/07/13 10:55:31;;;;;;;3.78;1.10;;;29.10;55.50;;;;;;5043773;28;20098;-84
2023/07/13 10:58:21;;;;;;;0.90;0.73;;;29.20;55.20;;;;;;5039163;28;20040;-81
2023/07/13 11:01:13;;;;;;;1.50;0.88;;;29.50;55.10;;;;;;5039076;28;20475;-81
2023/07/13 11:03:54;;;;;;;1.65;1.02;;;29.70;54.70;;;;;;5034563;28;20519;-83
2023/07/13 11:06:29;;;;;;;1.77;1.00;;;29.80;54.40;;;;;;5031205;28;20040;-83
2023/07/13 11:08:58;;;;;;;1.60;0.70;;;30.00;54.20;;;;;;5033959;28;20039;-81
2023/07/13 11:11:24;;;;;;;1.58;1.05;;;30.20;53.80;;;;;;5051447;28;20032;-83
2023/07/13 11:13:50;;;;;;;3.47;0.90;;;30.40;53.60;;;;;;5038019;28;20036;-83
2023/07/13 11:16:22;;;;;;;2.72;1.30;;;30.60;53.20;;;;;;5050829;28;20070;-81
2023/07/13 11:18:51;;;;;;;0.98;0.85;;;30.80;52.80;;;;;;5040168;28;20040;-83
2023/07/13 11:21:25;;;;;;;2.40;1.52;;;30.80;52.50;;;;;;5038512;28;20374;-86
2023/07/13 11:24:13;;;;;;;2.45;1.10;;;30.90;52.30;;;;;;5047122;28;20040;-83
2023/07/13 11:26:46;;;;;;;1.63;1.00;;;30.80;52.10;;;;;;5040794;28;20302;-84
2023/07/13 11:29:21;;;;;;;;;;;30.80;52.20;;;;;;5022428;28;20033;-82
2023/07/13 11:31:56;;;;;;;3.55;1.20;;;30.80;52.50;;;;;;5043264;28;19987;-80
2023/07/13 11:34:33;;;;;;;4.25;1.63;;;30.80;52.30;;;;;;5037637;28;20047;-82
2023/07/13 11:37:03;;;;;;;5.07;1.42;;;30.80;52.20;;;;;;5037813;28;20098;-82
2023/07/13 11:39:36;;;;;;;1.70;1.23;;;31.00;52.20;;;;;;5048446;28;20032;-81
2023/07/13 11:42:11;;;;;;;2.05;1.30;;;31.10;52.50;;;;;;5046372;28;20045;-80
2023/07/13 11:44:49;;;;;;;2.92;0.95;;;31.20;51.60;;;;;;5026597;28;20041;-80
2023/07/13 11:47:20;;;;;;;2.38;1.30;;;31.30;51.40;;;;;;5032769;28;20593;-81
2023/07/13 11:49:50;;;;;;;1.60;0.88;;;31.50;51.30;;;;;;5036753;28;20420;-85
2023/07/13 11:52:33;;;;;;;2.45;1.60;;;31.70;51.60;;;;;;5048467;28;20036;-81
2023/07/13 11:55:01;;;;;;;2.75;0.93;;;31.90;50.20;;;;;;5037158;28;20032;-82
2023/07/13 11:57:31;;;;;;;2.70;1.33;;;32.00;50.00;;;;;;5027204;28;20048;-83
2023/07/13 11:59:59;;;;;;;1.75;0.88;;;32.20;49.60;;;;;;5010494;28;20314;-87
2023/07/13 12:02:33;;;;;;;3.08;1.30;;;32.30;49.30;;;;;;5038761;28;20041;-86
2023/07/13 12:05:13;;;;;;;3.50;1.00;;;32.50;49.10;;;;;;5047360;28;20044;-85
2023/07/13 12:07:39;;;;;;;2.13;0.95;;;32.60;49.00;;;;;;5036084;28;20098;-86
2023/07/13 12:10:09;;;;;;;2.10;1.10;;;32.70;48.70;;;;;;5047694;28;20098;-85
2023/07/13 12:13:00;;;;;;;3.08;1.10;;;32.90;48.50;;;;;;5043778;28;20037;-85
2023/07/13 12:15:42;;;;;;;1.98;1.17;;;33.00;48.30;;;;;;5036061;28;20042;-86
2023/07/13 12:18:21;;;;;;;2.05;1.30;;;33.00;48.20;;;;;;5054442;28;20025;-84
2023/07/13 12:20:49;;;;;;;1.27;1.10;;;33.00;48.30;;;;;;5038712;28;20143;-87
2023/07/13 12:23:27;;;;;;;2.13;1.00;;;33.00;48.10;;;;;;5046187;28;20472;-82
2023/07/13 12:25:58;;;;;;;1.42;1.10;;;33.10;47.90;;;;;;5029029;28;20215;-81
2023/07/13 12:28:43;;;;;;;2.55;1.33;;;33.20;47.80;;;;;;5051518;28;20044;-84
2023/07/13 12:31:26;;;;;;;1.45;1.10;;;33.30;47.60;;;;;;5037703;28;20216;-82
2023/07/13 12:33:58;;;;;;;3.13;0.80;;;33.30;47.50;;;;;;5038998;28;20282;-83
2023/07/13 12:36:24;;;;;;;1.70;1.00;;;33.30;47.60;;;;;;5046769;28;20058;-84
2023/07/13 12:38:54;;;;;;;3.25;1.50;;;33.30;47.50;;;;;;5046206;28;20033;-83
2023/07/13 12:41:20;;;;;;;1.58;1.00;;;33.20;47.50;;;;;;5041429;28;20043;-83
2023/07/13 12:43:47;;;;;;;3.00;1.20;;;33.10;47.60;;;;;;5044921;28;20036;-82
2023/07/13 12:46:29;;;;;;;2.50;1.02;;;33.00;47.60;;;;;;5038679;28;20187;-83
2023/07/13 12:48:58;;;;;;;2.80;1.17;;;32.90;47.60;;;;;;5024141;28;20048;-84
2023/07/13 12:51:27;;;;;;;1.92;1.10;;;32.80;48.20;;;;;;5055516;28;20066;-84
2023/07/13 12:54:18;;;;;;;1.92;0.90;;;32.70;47.50;;;;;;5034452;28;20036;-83
2023/07/13 12:56:54;;;;;;;2.50;1.08;;;32.70;47.50;;;;;;5012460;28;20102;-83
2023/07/13 12:59:21;;;;;;;;;;;32.60;47.70;;;;;;5049063;28;20036;-84
2023/07/13 13:01:53;;;;;;;1.17;0.88;;;32.60;48.00;;;;;;5044087;28;19919;-83
2023/07/13 13:04:21;;;;;;;2.42;1.17;;;32.50;48.00;;;;;;5042989;28;20036;-83
2023/07/13 13:06:47;;;;;;;1.58;0.95;;;32.50;47.90;;;;;;5053418;28;20210;-83
2023/07/13 13:09:15;;;;;;;0.93;0.70;;;32.50;47.80;;;;;;5019891;28;20033;-81
2023/07/13 13:11:42;;;;;;;2.13;1.30;;;32.50;47.70;;;;;;5021078;28;20033;-83
2023/07/13 13:14:09;;;;;;;2.45;1.08;;;32.60;47.60;;;;;;5035368;28;20089;-83